Zim Chicago — A8SI9 — position and weather

sailwx.info

Track history (hours):
 
Tides and Currents Weather Stations Pressure Air Temp Water Temp Dewpoint Dewpoint Depression Visibility Wind Speed Wind Dir Waves Ship Positions

Zim Chicago

Last reported at 2015-Mar-03 23:32 UTC. Time now 2015-Mar-04 00:13 UTC.
Position N 32°08' W 081°08'.

Length 334 m; draft 11.4 m.

Type: Cargo ship. MMSI: 636014223.

Date/timePositionNaut miles runAvg speedWind from/ knotsBaromVisibWave heightAir tempDewpointWater temp
2015-Mar-03 23:32N 32°08' W 081°08'0 0.0
2015-Mar-03 22:31N 32°08' W 081°08'0 0.0
2015-Mar-03 21:31N 32°08' W 081°08'0 0.0
2015-Mar-03 20:31N 32°08' W 081°08'0 0.0
2015-Mar-03 19:31N 32°08' W 081°08'0 0.0
2015-Mar-03 18:31N 32°08' W 081°08'0 0.0
2015-Mar-03 17:31N 32°08' W 081°08'0 0.0
2015-Mar-03 16:31N 32°08' W 081°08'0 0.0
2015-Mar-03 15:32N 32°08' W 081°08'0 0.0
2015-Mar-03 14:32N 32°08' W 081°08'0 0.0
2015-Mar-03 13:31N 32°08' W 081°08'0 0.0
2015-Mar-03 12:31N 32°08' W 081°08'0 0.0
2015-Mar-03 11:31N 32°08' W 081°08'0 0.0
2015-Mar-03 10:31N 32°08' W 081°08'0 0.0
2015-Mar-03 09:31N 32°08' W 081°08'0 0.0
2015-Mar-03 08:31N 32°08' W 081°08'0 0.0
2015-Mar-03 07:31N 32°08' W 081°08'0 0.0
2015-Mar-03 06:31N 32°08' W 081°08'0 0.0
2015-Mar-03 05:31N 32°08' W 081°08'0 0.0
2015-Mar-03 04:31N 32°08' W 081°08'0 0.0
2015-Mar-03 03:34N 32°08' W 081°08'1 1.0
2015-Mar-03 02:33N 32°07' W 081°07'5 5.1
2015-Mar-03 01:33N 32°05' W 081°02'8 7.6
2015-Mar-03 00:32N 32°02' W 080°53'1110.5
2015-Mar-02 23:30N 31°58' W 080°41'6 6.7
2015-Mar-02 22:32N 31°57' W 080°34'1 0.3
2015-Mar-02 20:19N 31°57' W 080°33'0 0.0
2015-Mar-02 19:13N 31°57' W 080°33'0 0.1
2015-Mar-02 18:19N 31°57' W 080°33'0 0.2
2015-Mar-02 17:31N 31°57' W 080°33'0 0.1
2015-Mar-02 16:28N 31°57' W 080°33'0 0.0
2015-Mar-02 14:22N 31°57' W 080°33'0 0.1
2015-Mar-02 13:25N 31°57' W 080°33'0 0.1
2015-Mar-02 11:10N 31°57' W 080°33'0 0.0
2015-Mar-02 10:16N 31°57' W 080°33'1 0.6
2015-Mar-02 08:32N 31°56' W 080°33'5 4.8
2015-Mar-02 07:33N 31°59' W 080°29'2 2.3
2015-Mar-02 06:33N 31°58' W 080°26'1 0.9
2015-Mar-02 05:31N 31°58' W 080°25'1 0.7
2015-Mar-02 04:33N 31°59' W 080°25'1 0.7
2015-Mar-02 03:33N 31°58' W 080°24'32510.7
2015-Feb-28 21:09N 35°07' W 075°07'26811.7
2015-Feb-27 22:09N 39°28' W 073°52'711.7
2015-Feb-27 21:33N 39°35' W 073°52'1211.7
2015-Feb-27 20:33N 39°47' W 073°51'1211.8
2015-Feb-27 19:33N 39°59' W 073°50'2210.5
2015-Feb-27 17:25N 40°21' W 073°49'7 7.9
2015-Feb-27 16:33N 40°28' W 073°51'1111.4
2015-Feb-27 15:33N 40°35' W 074°02'6 6.1
2015-Feb-27 14:33N 40°39' W 074°09'1 1.1
2015-Feb-27 13:32N 40°40' W 074°09'0 0.0
2015-Feb-27 12:29N 40°40' W 074°09'0 0.0
2015-Feb-27 11:32N 40°40' W 074°09'0 0.0
2015-Feb-27 10:32N 40°40' W 074°09'0 0.0
2015-Feb-27 09:32N 40°40' W 074°09'0 0.0
2015-Feb-27 08:32N 40°40' W 074°09'0 0.0
2015-Feb-27 07:32N 40°40' W 074°08'0 0.0
2015-Feb-27 06:32N 40°40' W 074°09'0 0.0
2015-Feb-27 05:29N 40°40' W 074°08'0 0.0
2015-Feb-27 04:32N 40°40' W 074°09'0 0.0
2015-Feb-27 03:32N 40°40' W 074°09'0 0.0
2015-Feb-27 02:32N 40°40' W 074°08'0 0.0
2015-Feb-27 01:11N 40°40' W 074°09'0 0.0
2015-Feb-27 00:14N 40°40' W 074°09'0 0.0
2015-Feb-26 23:32N 40°40' W 074°09'0 0.0
2015-Feb-26 22:26N 40°40' W 074°09'0 0.0
2015-Feb-26 21:26N 40°40' W 074°08'0 0.0
2015-Feb-26 20:14N 40°40' W 074°09'0 0.0
2015-Feb-26 19:23N 40°40' W 074°09'0 0.0
2015-Feb-26 18:26N 40°40' W 074°09'0 0.0
2015-Feb-26 17:29N 40°40' W 074°09'0 0.0
2015-Feb-26 16:32N 40°40' W 074°09'0 0.0
2015-Feb-26 15:32N 40°40' W 074°09'0 0.0
2015-Feb-26 14:20N 40°40' W 074°09'0 0.0
2015-Feb-26 13:17N 40°40' W 074°09'0 0.0
2015-Feb-26 12:32N 40°40' W 074°09'0 0.0
2015-Feb-26 11:32N 40°40' W 074°09'0 0.0
2015-Feb-26 10:20N 40°40' W 074°09'0 0.0
2015-Feb-26 09:32N 40°40' W 074°09'0 0.0
2015-Feb-26 08:29N 40°40' W 074°09'0 0.0
2015-Feb-26 07:17N 40°40' W 074°09'0 0.0
2015-Feb-26 06:23N 40°40' W 074°09'0 0.0
2015-Feb-26 05:32N 40°40' W 074°08'0 0.0
2015-Feb-26 04:32N 40°40' W 074°08'0 0.0
2015-Feb-26 03:29N 40°40' W 074°09'0 0.0
2015-Feb-26 02:29N 40°40' W 074°08'0 0.0
2015-Feb-26 01:29N 40°40' W 074°09'0 0.0
2015-Feb-26 00:23N 40°40' W 074°09'0 0.0
2015-Feb-25 23:26N 40°40' W 074°08'0 0.0
2015-Feb-25 22:29N 40°40' W 074°09'0 0.0
2015-Feb-25 21:26N 40°40' W 074°09'0 0.0
2015-Feb-25 20:32N 40°40' W 074°09'0 0.0
2015-Feb-25 19:26N 40°40' W 074°09'0 0.0
2015-Feb-25 18:32N 40°40' W 074°09'0 0.0
2015-Feb-25 16:09N 40°40' W 074°08'0 0.0
2015-Feb-25 15:27N 40°40' W 074°09'0 0.0
2015-Feb-25 14:30N 40°40' W 074°09'0 0.0
2015-Feb-25 13:09N 40°40' W 074°09'1 1.5
2015-Feb-25 12:33N 40°39' W 074°09'4 4.4
2015-Feb-25 11:33N 40°38' W 074°03'6 5.6
2015-Feb-25 10:26N 40°32' W 074°01'7 7.7
2015-Feb-25 09:30N 40°28' W 073°53'17 8.1
2015-Feb-25 07:22N 40°19' W 073°34'6310.7
2015-Feb-25 01:28N 39°48' W 072°22'1111.3
2015-Feb-25 00:27N 39°43' W 072°09'1011.0
2015-Feb-24 23:32N 39°39' W 071°57'1111.3
2015-Feb-24 22:33N 39°35' W 071°43'9 3.9
2015-Feb-24 20:19N 39°31' W 071°34'2 1.7
2015-Feb-24 19:18N 39°29' W 071°33'  
Track history (hours):
 
Tides and Currents Weather Stations Pressure Air Temp Water Temp Dewpoint Dewpoint Depression Visibility Wind Speed Wind Dir Waves Ship Positions

Zim Chicago

Last reported at 2015-Mar-03 23:32 UTC. Time now 2015-Mar-04 00:13 UTC.
Position N 32°08' W 081°08'.

Length 334 m; draft 11.4 m.

Type: Cargo ship. MMSI: 636014223.

Date/timePositionNaut miles runAvg speedWind from/ knotsBaromVisibWave heightAir tempDewpointWater temp
2015-Mar-03 23:32N 32°08' W 081°08'0 0.0
2015-Mar-03 22:31N 32°08' W 081°08'0 0.0
2015-Mar-03 21:31N 32°08' W 081°08'0 0.0
2015-Mar-03 20:31N 32°08' W 081°08'0 0.0
2015-Mar-03 19:31N 32°08' W 081°08'0 0.0
2015-Mar-03 18:31N 32°08' W 081°08'0 0.0
2015-Mar-03 17:31N 32°08' W 081°08'0 0.0
2015-Mar-03 16:31N 32°08' W 081°08'0 0.0
2015-Mar-03 15:32N 32°08' W 081°08'0 0.0
2015-Mar-03 14:32N 32°08' W 081°08'0 0.0
2015-Mar-03 13:31N 32°08' W 081°08'0 0.0
2015-Mar-03 12:31N 32°08' W 081°08'0 0.0
2015-Mar-03 11:31N 32°08' W 081°08'0 0.0
2015-Mar-03 10:31N 32°08' W 081°08'0 0.0
2015-Mar-03 09:31N 32°08' W 081°08'0 0.0
2015-Mar-03 08:31N 32°08' W 081°08'0 0.0
2015-Mar-03 07:31N 32°08' W 081°08'0 0.0
2015-Mar-03 06:31N 32°08' W 081°08'0 0.0
2015-Mar-03 05:31N 32°08' W 081°08'0 0.0
2015-Mar-03 04:31N 32°08' W 081°08'0 0.0
2015-Mar-03 03:34N 32°08' W 081°08'1 1.0
2015-Mar-03 02:33N 32°07' W 081°07'5 5.1
2015-Mar-03 01:33N 32°05' W 081°02'8 7.6
2015-Mar-03 00:32N 32°02' W 080°53'1110.5
2015-Mar-02 23:30N 31°58' W 080°41'6 6.7
2015-Mar-02 22:32N 31°57' W 080°34'1 0.3
2015-Mar-02 20:19N 31°57' W 080°33'0 0.0
2015-Mar-02 19:13N 31°57' W 080°33'0 0.1
2015-Mar-02 18:19N 31°57' W 080°33'0 0.2
2015-Mar-02 17:31N 31°57' W 080°33'0 0.1
2015-Mar-02 16:28N 31°57' W 080°33'0 0.0
2015-Mar-02 14:22N 31°57' W 080°33'0 0.1
2015-Mar-02 13:25N 31°57' W 080°33'0 0.1
2015-Mar-02 11:10N 31°57' W 080°33'0 0.0
2015-Mar-02 10:16N 31°57' W 080°33'1 0.6
2015-Mar-02 08:32N 31°56' W 080°33'5 4.8
2015-Mar-02 07:33N 31°59' W 080°29'2 2.3
2015-Mar-02 06:33N 31°58' W 080°26'1 0.9
2015-Mar-02 05:31N 31°58' W 080°25'1 0.7
2015-Mar-02 04:33N 31°59' W 080°25'1 0.7
2015-Mar-02 03:33N 31°58' W 080°24'32510.7
2015-Feb-28 21:09N 35°07' W 075°07'26811.7
2015-Feb-27 22:09N 39°28' W 073°52'711.7
2015-Feb-27 21:33N 39°35' W 073°52'1211.7
2015-Feb-27 20:33N 39°47' W 073°51'1211.8
2015-Feb-27 19:33N 39°59' W 073°50'2210.5
2015-Feb-27 17:25N 40°21' W 073°49'7 7.9
2015-Feb-27 16:33N 40°28' W 073°51'1111.4
2015-Feb-27 15:33N 40°35' W 074°02'6 6.1
2015-Feb-27 14:33N 40°39' W 074°09'1 1.1
2015-Feb-27 13:32N 40°40' W 074°09'0 0.0
2015-Feb-27 12:29N 40°40' W 074°09'0 0.0
2015-Feb-27 11:32N 40°40' W 074°09'0 0.0
2015-Feb-27 10:32N 40°40' W 074°09'0 0.0
2015-Feb-27 09:32N 40°40' W 074°09'0 0.0
2015-Feb-27 08:32N 40°40' W 074°09'0 0.0
2015-Feb-27 07:32N 40°40' W 074°08'0 0.0
2015-Feb-27 06:32N 40°40' W 074°09'0 0.0
2015-Feb-27 05:29N 40°40' W 074°08'0 0.0
2015-Feb-27 04:32N 40°40' W 074°09'0 0.0
2015-Feb-27 03:32N 40°40' W 074°09'0 0.0
2015-Feb-27 02:32N 40°40' W 074°08'0 0.0
2015-Feb-27 01:11N 40°40' W 074°09'0 0.0
2015-Feb-27 00:14N 40°40' W 074°09'0 0.0
2015-Feb-26 23:32N 40°40' W 074°09'0 0.0
2015-Feb-26 22:26N 40°40' W 074°09'0 0.0
2015-Feb-26 21:26N 40°40' W 074°08'0 0.0
2015-Feb-26 20:14N 40°40' W 074°09'0 0.0
2015-Feb-26 19:23N 40°40' W 074°09'0 0.0
2015-Feb-26 18:26N 40°40' W 074°09'0 0.0
2015-Feb-26 17:29N 40°40' W 074°09'0 0.0
2015-Feb-26 16:32N 40°40' W 074°09'0 0.0
2015-Feb-26 15:32N 40°40' W 074°09'0 0.0
2015-Feb-26 14:20N 40°40' W 074°09'0 0.0
2015-Feb-26 13:17N 40°40' W 074°09'0 0.0
2015-Feb-26 12:32N 40°40' W 074°09'0 0.0
2015-Feb-26 11:32N 40°40' W 074°09'0 0.0
2015-Feb-26 10:20N 40°40' W 074°09'0 0.0
2015-Feb-26 09:32N 40°40' W 074°09'0 0.0
2015-Feb-26 08:29N 40°40' W 074°09'0 0.0
2015-Feb-26 07:17N 40°40' W 074°09'0 0.0
2015-Feb-26 06:23N 40°40' W 074°09'0 0.0
2015-Feb-26 05:32N 40°40' W 074°08'0 0.0
2015-Feb-26 04:32N 40°40' W 074°08'0 0.0
2015-Feb-26 03:29N 40°40' W 074°09'0 0.0
2015-Feb-26 02:29N 40°40' W 074°08'0 0.0
2015-Feb-26 01:29N 40°40' W 074°09'0 0.0
2015-Feb-26 00:23N 40°40' W 074°09'0 0.0
2015-Feb-25 23:26N 40°40' W 074°08'0 0.0
2015-Feb-25 22:29N 40°40' W 074°09'0 0.0
2015-Feb-25 21:26N 40°40' W 074°09'0 0.0
2015-Feb-25 20:32N 40°40' W 074°09'0 0.0
2015-Feb-25 19:26N 40°40' W 074°09'0 0.0
2015-Feb-25 18:32N 40°40' W 074°09'0 0.0
2015-Feb-25 16:09N 40°40' W 074°08'0 0.0
2015-Feb-25 15:27N 40°40' W 074°09'0 0.0
2015-Feb-25 14:30N 40°40' W 074°09'0 0.0
2015-Feb-25 13:09N 40°40' W 074°09'1 1.5
2015-Feb-25 12:33N 40°39' W 074°09'4 4.4
2015-Feb-25 11:33N 40°38' W 074°03'6 5.6
2015-Feb-25 10:26N 40°32' W 074°01'7 7.7
2015-Feb-25 09:30N 40°28' W 073°53'17 8.1
2015-Feb-25 07:22N 40°19' W 073°34'6310.7
2015-Feb-25 01:28N 39°48' W 072°22'1111.3
2015-Feb-25 00:27N 39°43' W 072°09'1011.0
2015-Feb-24 23:32N 39°39' W 071°57'1111.3
2015-Feb-24 22:33N 39°35' W 071°43'9 3.9
2015-Feb-24 20:19N 39°31' W 071°34'2 1.7
2015-Feb-24 19:18N 39°29' W 071°33'  

Dump ship's entire track history